HOURLY OBS INDEX

031

North Coast - Barron

CAIRNS AERO

Site: 031011
Alt: 2.2m
5km NNW of CAIRNS


  Time     Wind        Temp  DP   Baro     Rain since   Rain past  Vis(m), Cloud(base in m), Weather
  local        km/h                         9am  last   hr   10m    
Wed 15:00  ESE 26/ 37  27.6 16.9  1013.1    0.0   0.0   0.0   0.0  *10000|FE 960cu 
Wed 15:30    E 24/ 32  27.0 17.2  1012.9    0.0   0.0   0.0   0.0  *10000|SC 900cu 
Wed 16:00  ESE 24/ 32  27.2 17.4  1012.9    0.0   0.0   0.0   0.0  *10000|FE 960cu 
Wed 16:30  ESE 28/ 33  26.4 16.9  1013.1    0.0   0.0   0.0   0.0  *10000|FE 900cu 
Wed 17:00  ESE 24/ 30  25.8 17.2  1013.3    0.0   0.0   0.0   0.0  *10000|FE 900sc 
Wed 17:30   SE 28/ 32  24.6 16.8  1013.6    0.0   0.0   0.0   0.0  *10000|SC1050sc 
Wed 18:00  ESE 22/ 30  24.1 17.1  1013.8    0.0   0.0   0.0   0.0  *10000|SC 840sc 
Wed 18:30   SE 17/ 20  23.6 17.6  1014.1    0.0   0.0   0.0   0.0  *10000|FE 840sc 
Wed 19:00   SE 15/ 19  23.2 17.4  1014.6    0.0   0.0   0.0   0.0  *10000|FE 900sc 
Wed 19:30   SE 11/ 15  22.5 17.2  1014.9    0.0   0.0   0.0   0.0  *10000|FE 840sc 
Wed 20:00    S  9/ 13  22.5 17.8  1015.3    0.0   0.0   0.0   0.0  *10000|FE 840cu 
Wed 20:30  SSE 11/ 17  22.3 17.7  1015.6    0.0   0.0   0.0   0.0  *10000|FE 780st 

CAIRNS RACECOURSE

Site: 031222
Alt: 4.1m
km of


  Time     Wind        Temp  DP   Baro     Rain since   Rain past  Vis(m), Cloud(base in m), Weather
  local        km/h                         9am  last   hr   10m    
Wed 15:00    E 24/ 35  26.9 17.1  ------    0.0   0.0   0.0   0.0   10000|SC2160 
Wed 15:30  ESE 24/ 35  26.8 17.3  ------    0.0   0.0   0.0   0.0   10000 
Wed 16:00    E 22/ 33  25.9 17.0  ------    0.0   0.0   0.0   0.0   10000 
Wed 16:30    E 19/ 32  25.5 17.4  ------    0.0   0.0   0.0   0.0   10000 
Wed 17:00    E 19/ 30  24.8 17.5  ------    0.0   0.0   0.0   0.0   10000 
Wed 17:30  ESE 19/ 30  24.3 17.5  ------    0.0   0.0   0.0   0.0   10000|SC1110 
Wed 18:00  ESE 15/ 20  23.8 17.8  ------    0.0   0.0   0.0   0.0   10000|SC1110 
Wed 18:30   SE  9/ 17  23.4 17.8  ------    0.0   0.0   0.0   0.0   10000|SC1110 
Wed 19:00  SSE  7/ 15  23.0 17.7  ------    0.0   0.0   0.0   0.0   10000 
Wed 19:30    S  2/  9  22.1 17.2  ------    0.0   0.0   0.0   0.0   10000 
Wed 20:00  SSW  7/ 11  21.5 17.3  ------    0.0   0.0   0.0   0.0   10000 
Wed 20:30    S  9/ 13  21.9 17.9  ------    0.0   0.0   0.0   0.0   10000 

CAPE FLATTERY

Site: 031213
Alt: 18.5m
58km N of COOKTOWN


  Time     Wind        Temp  DP   Baro     Rain since   Rain past  Vis(m), Cloud(base in m), Weather
  local        km/h                         9am  last   hr   10m    
Wed 15:00   SE 33/ 45  27.7 17.8  1012.5    0.0   0.0   0.0   0.0   ----- 
Wed 15:30   SE 32/ 45  27.4 17.3  1012.3    0.0   0.0   0.0   0.0   ----- 
Wed 16:00   SE 32/ 45  26.9 17.7  1012.3    0.0   0.0   0.0   0.0   ----- 
Wed 16:30   SE 32/ 43  26.2 17.6  1012.4    0.0   0.0   0.0   0.0   ----- 
Wed 17:00   SE 28/ 41  26.0 18.2  1012.7    0.0   0.0   0.0   0.0   ----- 
Wed 17:30   SE 32/ 41  25.0 17.7  1012.9    0.0   0.0   0.0   0.0   ----- 
Wed 18:00   SE 30/ 39  24.4 17.9  1013.2    0.0   0.0   0.0   0.0   ----- 
Wed 18:30   SE 26/ 37  24.2 17.4  1013.6    0.0   0.0   0.0   0.0   ----- 
Wed 19:00   SE 26/ 37  24.0 18.2  1013.9    0.0   0.0   0.0   0.0   ----- 
Wed 19:30   SE 26/ 41  23.9 17.4  1014.3    0.0   0.0   0.0   0.0   ----- 
Wed 20:00   SE 28/ 41  24.1 18.1  1014.6    0.0   0.0   0.0   0.0   ----- 
Wed 20:30   SE 28/ 37  23.8 17.8  1014.9    0.0   0.0   0.0   0.0   ----- 

COOKTOWN AIRPORT

Site: 031209
Alt: 4.8m
8km WNW of COOKTOWN


  Time     Wind        Temp  DP   Baro     Rain since   Rain past  Vis(m), Cloud(base in m), Weather
  local        km/h                         9am  last   hr   10m    
Wed 15:00   SE 26/ 39  27.3 16.7  1012.4    0.0   0.0   0.0   0.0   10000 
Wed 15:30  ESE 28/ 39  26.5 17.0  1012.2    0.0   0.0   0.0   0.0   10000 
Wed 16:00   SE 26/ 35  26.3 17.0  1012.4    0.0   0.0   0.0   0.0   10000|SC 960 
Wed 16:30  ESE 22/ 35  25.0 18.0  1012.4    0.0   0.0   0.0   0.0   10000|SC 900 
Wed 17:00  ESE 22/ 33  25.2 17.7  1012.7    0.0   0.0   0.0   0.0   10000|SC 840 
Wed 17:30  ESE 17/ 32  24.8 18.3  1012.9    0.0   0.0   0.0   0.0   10000|SC 840 BR1110 BR1260 
Wed 18:00   SE 22/ 33  24.4 17.3  1013.0    0.0   0.0   0.0   0.0   10000|SC 840 SC 990 
Wed 18:30  ESE 22/ 32  24.0 17.0  1013.4    0.0   0.0   0.0   0.0   10000|SC 900 
Wed 19:00  ESE 17/ 30  23.8 17.2  1013.9    0.0   0.0   0.0   0.0   10000|SC 900 
Wed 19:30  ESE 17/ 35  23.9 17.6  1014.1    0.0   0.0   0.0   0.0   10000|SC 840 
Wed 20:00  ESE 19/ 28  23.7 17.9  1014.6    0.0   0.0   0.0   0.0   10000|SC 840 
Wed 20:30  ESE 17/ 28  23.8 17.5  1014.8    0.0   0.0   0.0   0.0   10000|SC 840 BR 990 BR1200 

LOW ISLES LIGHTHOUSE

Site: 031037
Alt: 2.9m
63km NNW of CAIRNS


  Time     Wind        Temp  DP   Baro     Rain since   Rain past  Vis(m), Cloud(base in m), Weather
  local        km/h                         9am  last   hr   10m    
Wed 15:00    E 24/ 32  28.1 18.8  1013.3    0.0   0.0   0.0   0.0   ----- 
Wed 15:30    E 24/ 32  27.7 18.4  1012.9    0.0   0.0   0.0   0.0   ----- 
Wed 16:00    E 26/ 35  26.9 17.9  1013.1    0.0   0.0   0.0   0.0   ----- 
Wed 16:30  ESE 24/ 30  26.0 17.6  1013.2    0.0   0.0   0.0   0.0   ----- 
Wed 17:00  ESE 24/ 30  25.5 18.2  1013.3    0.0   0.0   0.0   0.0   ----- 
Wed 17:30  ESE 24/ 30  24.9 17.9  1013.5    0.0   0.0   0.0   0.0   ----- 
Wed 18:00  ESE 22/ 28  24.7 18.4  1013.7    0.0   0.0   0.0   0.0   ----- 
Wed 18:30  ESE 24/ 28  24.4 18.1  1014.1    0.0   0.0   0.0   0.0   ----- 
Wed 19:00  ESE 22/ 32  24.3 18.5  1014.5    0.0   0.0   0.0   0.0   ----- 
Wed 19:30  ESE 24/ 30  24.2 18.6  1014.9    0.0   0.0   0.0   0.0   ----- 
Wed 20:00  ESE 22/ 28  24.2 19.1  1015.2    0.0   0.0   0.0   0.0   ----- 
Wed 20:30  ESE 24/ 28  24.0 18.4  1015.4    0.0   0.0   0.0   0.0   ----- 

MAREEBA AIRPORT

Site: 031210
Alt: 471.9m
40km WSW of CAIRNS


  Time     Wind        Temp  DP   Baro     Rain since   Rain past  Vis(m), Cloud(base in m), Weather
  local        km/h                         9am  last   hr   10m    
Wed 15:00   SE 24/ 33  26.4 13.9  1013.9    0.0   0.0   0.0   0.0   ----- 
Wed 15:30   SE 22/ 33  26.1 12.5  1013.9    0.0   0.0   0.0   0.0   ----- 
Wed 16:00  ESE 15/ 20  26.6 13.0  1013.9    0.0   0.0   0.0   0.0   ----- 
Wed 16:30    E 17/ 26  25.1 13.3  1014.3    0.0   0.0   0.0   0.0   ----- 
Wed 17:00  ESE 24/ 32  24.6 13.5  1014.6    0.0   0.0   0.0   0.0   ----- 
Wed 17:30   SE 20/ 30  23.6 13.5  1014.9    0.0   0.0   0.0   0.0   ----- 
Wed 18:00  ESE 22/ 32  22.9 13.7  1015.1    0.0   0.0   0.0   0.0   ----- 
Wed 18:30   SE 17/ 22  21.8 13.7  1015.6    0.0   0.0   0.0   0.0   ----- 
Wed 19:00    S  4/ 11  20.6 13.6  1016.0    0.0   0.0   0.0   0.0   ----- 
Wed 19:30    C  0/  0  19.6 13.5  1016.4    0.0   0.0   0.0   0.0   ----- 
Wed 20:00    C  0/  0  18.3 13.4  1017.0    0.0   0.0   0.0   0.0   ----- 
Wed 20:30    C  0/  0  18.3 14.8  1017.2    0.0   0.0   0.0   0.0   -----